createdAt,value
2023-05-08T00:00:26.811Z,13.5
2023-05-08T00:01:35.119Z,13.5
2023-05-08T00:02:43.480Z,13.5
2023-05-08T00:03:52.012Z,12.6
2023-05-08T00:05:00.461Z,12.6
2023-05-08T00:06:08.619Z,12.6
2023-05-08T00:07:17.144Z,13.3
2023-05-08T00:08:25.467Z,13.3
2023-05-08T00:09:33.789Z,13.3
2023-05-08T00:10:42.303Z,12.9
2023-05-08T00:11:50.627Z,12.9
2023-05-08T00:12:58.970Z,12.9
2023-05-08T00:14:07.462Z,13.3
2023-05-08T00:15:15.788Z,13.3
2023-05-08T00:16:24.159Z,13.3
2023-05-08T00:17:32.645Z,12.8
2023-05-08T00:18:40.923Z,12.8
2023-05-08T00:19:49.273Z,12.8
2023-05-08T00:20:57.790Z,13.2
2023-05-08T00:22:06.098Z,13.2
2023-05-08T00:23:14.411Z,13.2
2023-05-08T00:24:22.949Z,12.3
2023-05-08T00:25:31.268Z,12.3
2023-05-08T00:26:39.580Z,12.3
2023-05-08T00:27:48.079Z,11.8
2023-05-08T00:28:56.418Z,11.8
2023-05-08T00:30:04.729Z,11.8
2023-05-08T00:31:13.277Z,12
2023-05-08T00:32:21.667Z,12
2023-05-08T00:33:29.873Z,12
2023-05-08T00:34:38.410Z,12
2023-05-08T00:35:46.728Z,12
2023-05-08T00:36:55.041Z,12
2023-05-08T00:38:03.562Z,12
2023-05-08T00:39:11.878Z,12
2023-05-08T00:40:20.183Z,12
2023-05-08T00:41:28.708Z,12.2
2023-05-08T00:42:37.021Z,12.2
2023-05-08T00:43:45.319Z,12.2
2023-05-08T00:44:53.835Z,12.1
2023-05-08T00:46:02.243Z,12.1
2023-05-08T00:47:10.503Z,12.1
2023-05-08T00:48:18.985Z,11
2023-05-08T00:49:27.303Z,11
2023-05-08T00:50:35.603Z,11
2023-05-08T00:51:44.133Z,11.3
2023-05-08T00:52:52.443Z,11.3
2023-05-08T00:54:00.770Z,11.3
2023-05-08T00:55:09.296Z,11.5
2023-05-08T00:56:17.615Z,11.5
2023-05-08T00:57:26.194Z,11.5
2023-05-08T00:58:34.444Z,12.5
2023-05-08T00:59:42.780Z,12.5
2023-05-08T01:00:51.090Z,12.5
2023-05-08T01:01:59.711Z,11.4
2023-05-08T01:03:08.228Z,11.4
2023-05-08T01:04:16.230Z,11.4
2023-05-08T01:05:24.751Z,11.4
2023-05-08T01:06:33.052Z,11.4
2023-05-08T01:07:41.363Z,11.4
2023-05-08T01:08:49.871Z,11.3
2023-05-08T01:09:58.195Z,11.3
2023-05-08T01:11:06.495Z,11.3
2023-05-08T01:12:15.019Z,10.3
2023-05-08T01:13:23.389Z,10.3
2023-05-08T01:14:31.657Z,10.3
2023-05-08T01:15:40.216Z,11.3
2023-05-08T01:16:48.483Z,11.3
2023-05-08T01:17:56.834Z,11.3
2023-05-08T01:19:05.340Z,11.5
2023-05-08T01:20:13.874Z,11.5
2023-05-08T01:21:21.978Z,11.5
2023-05-08T01:22:30.488Z,11.4
2023-05-08T01:23:38.811Z,11.4
2023-05-08T01:24:47.126Z,11.4
2023-05-08T01:25:55.636Z,11.5
2023-05-08T01:27:03.954Z,11.5
2023-05-08T01:28:12.253Z,11.5
2023-05-08T01:29:20.778Z,11.8
2023-05-08T01:30:29.090Z,11.8
2023-05-08T01:31:37.399Z,11.8
2023-05-08T01:32:45.935Z,13.1
2023-05-08T01:33:54.247Z,13.1
2023-05-08T01:35:02.597Z,13.1
2023-05-08T01:36:11.073Z,11.2
2023-05-08T01:37:19.376Z,11.2
2023-05-08T01:38:27.681Z,11.2
2023-05-08T01:39:36.195Z,11.7
2023-05-08T01:40:44.516Z,11.7
2023-05-08T01:41:52.815Z,11.7
2023-05-08T01:43:01.326Z,11.8
2023-05-08T01:44:09.627Z,11.8
2023-05-08T01:45:17.963Z,11.8
2023-05-08T01:46:26.524Z,14.2
2023-05-08T01:47:34.818Z,14.2
2023-05-08T01:48:43.099Z,14.2
2023-05-08T01:49:51.601Z,11.6
2023-05-08T01:51:00.025Z,11.6
2023-05-08T01:52:08.229Z,11.6
2023-05-08T01:53:16.756Z,11.5
2023-05-08T01:54:25.089Z,11.5
2023-05-08T01:55:33.431Z,11.5
2023-05-08T01:56:41.949Z,14.2
2023-05-08T01:57:50.262Z,14.2
2023-05-08T01:58:58.566Z,14.2
2023-05-08T02:00:07.097Z,12
2023-05-08T02:01:15.527Z,12
2023-05-08T02:02:23.820Z,12
2023-05-08T02:03:32.334Z,12
2023-05-08T02:04:40.616Z,12
2023-05-08T02:05:48.920Z,12
2023-05-08T02:06:57.463Z,11.9
2023-05-08T02:08:05.730Z,11.9
2023-05-08T02:09:14.049Z,11.9
2023-05-08T02:10:22.578Z,13.9
2023-05-08T02:11:30.888Z,13.9
2023-05-08T02:12:39.243Z,13.9
2023-05-08T02:13:47.696Z,13.5
2023-05-08T02:14:56.040Z,13.5
2023-05-08T02:16:04.345Z,13.5
2023-05-08T02:17:12.861Z,12.3
2023-05-08T02:18:21.180Z,12.3
2023-05-08T02:19:29.488Z,12.3
2023-05-08T02:20:38.003Z,13.5
2023-05-08T02:21:46.298Z,13.5
2023-05-08T02:22:54.658Z,13.5
2023-05-08T02:24:03.112Z,12.6
2023-05-08T02:25:11.429Z,12.6
2023-05-08T02:26:19.737Z,12.6
2023-05-08T02:27:28.269Z,15.2
2023-05-08T02:28:36.552Z,15.2
2023-05-08T02:29:44.868Z,15.2
2023-05-08T02:30:53.401Z,13.4
2023-05-08T02:32:01.769Z,13.4
2023-05-08T02:33:10.017Z,13.4
2023-05-08T02:34:18.529Z,13.5
2023-05-08T02:35:26.849Z,13.5
2023-05-08T02:36:35.151Z,13.5
2023-05-08T02:37:43.672Z,13.4
2023-05-08T02:38:52.010Z,13.4
2023-05-08T02:40:00.351Z,13.4
2023-05-08T02:41:08.852Z,14
2023-05-08T02:42:17.170Z,14
2023-05-08T02:43:25.468Z,14
2023-05-08T02:44:33.992Z,14.7
2023-05-08T02:45:42.328Z,14.7
2023-05-08T02:46:50.625Z,14.7
2023-05-08T02:47:59.162Z,14.4
2023-05-08T02:49:07.456Z,14.4
2023-05-08T02:50:15.779Z,14.4
2023-05-08T02:51:24.281Z,15.9
2023-05-08T02:52:32.598Z,15.9
2023-05-08T02:53:40.904Z,15.9
2023-05-08T02:54:49.461Z,14.2
2023-05-08T02:55:57.738Z,14.2
2023-05-08T02:57:06.055Z,14.2
2023-05-08T02:58:14.583Z,13.7
2023-05-08T02:59:22.887Z,13.7
2023-05-08T03:00:31.209Z,13.7
2023-05-08T03:01:39.730Z,14.7
2023-05-08T03:02:48.073Z,14.7
2023-05-08T03:03:56.432Z,14.7
2023-05-08T03:05:04.916Z,14.8
2023-05-08T03:06:13.202Z,14.8
2023-05-08T03:07:21.528Z,14.8
2023-05-08T03:08:30.064Z,15.5
2023-05-08T03:09:38.384Z,15.5
2023-05-08T03:10:46.709Z,15.5
2023-05-08T03:11:55.206Z,13.8
2023-05-08T03:13:03.559Z,13.8
2023-05-08T03:14:11.823Z,13.8
2023-05-08T03:15:20.360Z,15.3
2023-05-08T03:16:28.686Z,15.3
2023-05-08T03:17:37.014Z,15.3
2023-05-08T03:18:45.496Z,16.200001
2023-05-08T03:19:53.828Z,16.200001
2023-05-08T03:21:02.133Z,16.200001
2023-05-08T03:22:10.649Z,14.8
2023-05-08T03:23:18.966Z,14.8
2023-05-08T03:24:27.286Z,14.8
2023-05-08T03:25:35.793Z,17.200001
2023-05-08T03:26:44.135Z,17.200001
2023-05-08T03:27:52.419Z,17.200001
2023-05-08T03:29:00.924Z,14.3
2023-05-08T03:30:09.235Z,14.3
2023-05-08T03:31:17.540Z,14.3
2023-05-08T03:32:26.068Z,14
2023-05-08T03:33:34.358Z,14
2023-05-08T03:34:42.687Z,14
2023-05-08T03:35:51.194Z,15.1
2023-05-08T03:36:59.492Z,15.1
2023-05-08T03:38:07.840Z,15.1
2023-05-08T03:39:16.342Z,15.2
2023-05-08T03:40:24.663Z,15.2
2023-05-08T03:41:33.015Z,15.2
2023-05-08T03:42:41.661Z,16.299999
2023-05-08T03:43:49.818Z,16.299999
2023-05-08T03:44:58.137Z,16.299999
2023-05-08T03:46:06.673Z,15
2023-05-08T03:47:14.974Z,15
2023-05-08T03:48:23.278Z,15
2023-05-08T03:49:31.804Z,16.299999
2023-05-08T03:50:40.137Z,16.299999
2023-05-08T03:51:48.414Z,16.299999
2023-05-08T03:52:56.928Z,16.9
2023-05-08T03:54:05.234Z,16.9
2023-05-08T03:55:13.556Z,16.9
2023-05-08T03:56:22.725Z,15.2
2023-05-08T03:57:30.368Z,15.2
2023-05-08T03:58:38.707Z,15.2
2023-05-08T03:59:47.213Z,16.5
2023-05-08T04:00:55.517Z,16.5
2023-05-08T04:02:03.842Z,16.5
2023-05-08T04:03:12.378Z,16
2023-05-08T04:04:20.742Z,16
2023-05-08T04:05:28.997Z,16
2023-05-08T04:06:46.152Z,16.700001
2023-05-08T04:07:45.847Z,16.700001
2023-05-08T04:08:54.210Z,16.700001
2023-05-08T04:10:02.741Z,15.1
2023-05-08T04:11:11.045Z,15.1
2023-05-08T04:12:19.365Z,15.1
2023-05-08T04:13:27.925Z,14.9
2023-05-08T04:14:36.217Z,14.9
2023-05-08T04:15:44.512Z,14.9
2023-05-08T04:16:53.106Z,15.9
2023-05-08T04:18:01.391Z,15.9
2023-05-08T04:19:09.672Z,15.9
2023-05-08T04:20:18.185Z,16.299999
2023-05-08T04:21:26.497Z,16.299999
2023-05-08T04:22:34.842Z,16.299999
2023-05-08T04:23:43.372Z,15.2
2023-05-08T04:24:51.694Z,15.2
2023-05-08T04:25:59.995Z,15.2
2023-05-08T04:27:08.499Z,19.200001
2023-05-08T04:28:16.793Z,19.200001
2023-05-08T04:29:25.158Z,19.200001
2023-05-08T04:30:33.730Z,17
2023-05-08T04:31:42.014Z,17
2023-05-08T04:32:50.351Z,17
2023-05-08T04:33:58.873Z,18.700001
2023-05-08T04:35:07.152Z,18.700001
2023-05-08T04:36:15.535Z,18.700001
2023-05-08T04:37:24.062Z,16.4
2023-05-08T04:38:32.379Z,16.4
2023-05-08T04:39:41.931Z,16.4
2023-05-08T04:40:49.280Z,17.700001
2023-05-08T04:41:57.626Z,17.700001
2023-05-08T04:43:05.959Z,17.700001
2023-05-08T04:44:14.498Z,18.4
2023-05-08T04:45:22.821Z,18.4
2023-05-08T04:46:31.191Z,18.4
2023-05-08T04:47:39.673Z,20.700001
2023-05-08T04:48:48.043Z,20.700001
2023-05-08T04:49:56.373Z,20.700001
2023-05-08T04:51:04.892Z,16.299999
2023-05-08T04:52:13.227Z,16.299999
2023-05-08T04:53:21.545Z,16.299999
2023-05-08T04:54:30.082Z,16.9
2023-05-08T04:55:38.398Z,16.9
2023-05-08T04:56:46.712Z,16.9
2023-05-08T04:57:55.232Z,16.4
2023-05-08T04:59:03.593Z,16.4
2023-05-08T05:00:11.854Z,16.4
2023-05-08T05:01:20.388Z,18.5
2023-05-08T05:02:28.782Z,18.5
2023-05-08T05:03:37.021Z,18.5
2023-05-08T05:04:45.555Z,16.1
2023-05-08T05:05:53.840Z,16.1
2023-05-08T05:07:02.143Z,16.1
2023-05-08T05:08:10.652Z,20.5
2023-05-08T05:09:19.000Z,20.5
2023-05-08T05:10:27.342Z,20.5
2023-05-08T05:11:35.887Z,18.6
2023-05-08T05:12:44.198Z,18.6
2023-05-08T05:13:52.516Z,18.6
2023-05-08T05:15:01.037Z,14.9
2023-05-08T05:16:09.385Z,14.9
2023-05-08T05:17:17.660Z,14.9
2023-05-08T05:18:26.221Z,18.6
2023-05-08T05:19:34.512Z,18.6
2023-05-08T05:20:42.806Z,18.6
2023-05-08T05:21:51.339Z,16.799999
2023-05-08T05:22:59.697Z,16.799999
2023-05-08T05:24:08.006Z,16.799999
2023-05-08T05:25:16.522Z,16.5
2023-05-08T05:26:24.959Z,16.5
2023-05-08T05:27:33.289Z,16.5
2023-05-08T05:28:41.823Z,16.799999
2023-05-08T05:29:50.131Z,16.799999
2023-05-08T05:30:58.453Z,16.799999
2023-05-08T05:32:06.951Z,15.8
2023-05-08T05:33:15.279Z,15.8
2023-05-08T05:34:23.620Z,15.8
2023-05-08T05:35:32.110Z,17.700001
2023-05-08T05:36:40.401Z,17.700001
2023-05-08T05:37:48.710Z,17.700001
2023-05-08T05:38:57.255Z,17.6
2023-05-08T05:40:05.614Z,17.6
2023-05-08T05:41:13.935Z,17.6
2023-05-08T05:42:22.441Z,18.4
2023-05-08T05:43:30.771Z,18.4
2023-05-08T05:44:39.097Z,18.4
2023-05-08T05:45:47.641Z,16.799999
2023-05-08T05:46:55.971Z,16.799999
2023-05-08T05:48:04.311Z,16.799999
2023-05-08T05:49:12.789Z,16.4
2023-05-08T05:50:21.171Z,16.4
2023-05-08T05:51:29.493Z,16.4
2023-05-08T05:52:38.011Z,16.5
2023-05-08T05:53:46.415Z,16.5
2023-05-08T05:54:54.734Z,16.5
2023-05-08T05:56:03.265Z,18.700001
2023-05-08T05:57:11.579Z,18.700001
2023-05-08T05:58:19.913Z,18.700001
2023-05-08T05:59:28.471Z,15.7
2023-05-08T06:00:36.790Z,15.7
2023-05-08T06:01:45.106Z,15.7
2023-05-08T06:02:53.815Z,16.5
2023-05-08T06:04:02.173Z,16.5
2023-05-08T06:05:10.511Z,16.5
2023-05-08T06:06:18.976Z,17.1
2023-05-08T06:07:27.309Z,17.1
2023-05-08T06:08:35.615Z,17.1
2023-05-08T06:09:44.180Z,15.7
2023-05-08T06:10:52.499Z,15.7
2023-05-08T06:12:00.837Z,15.7
2023-05-08T06:13:09.388Z,17.200001
2023-05-08T06:14:17.700Z,17.200001
2023-05-08T06:15:26.020Z,17.200001
2023-05-08T06:16:34.566Z,17.9
2023-05-08T06:17:42.903Z,17.9
2023-05-08T06:18:51.230Z,17.9
2023-05-08T06:19:59.759Z,16.799999
2023-05-08T06:21:08.164Z,16.799999
2023-05-08T06:22:16.461Z,16.799999
2023-05-08T06:23:24.986Z,16.1
2023-05-08T06:24:33.318Z,16.1
2023-05-08T06:25:41.649Z,16.1
2023-05-08T06:26:50.176Z,16.799999
2023-05-08T06:27:58.517Z,16.799999
2023-05-08T06:29:06.851Z,16.799999
2023-05-08T06:30:15.368Z,15.9
2023-05-08T06:31:23.764Z,15.9
2023-05-08T06:32:32.071Z,15.9
2023-05-08T06:33:40.586Z,15.7
2023-05-08T06:34:48.893Z,15.7
2023-05-08T06:35:57.249Z,15.7
2023-05-08T06:37:05.806Z,15.9
2023-05-08T06:38:14.205Z,15.9
2023-05-08T06:39:22.455Z,15.9
2023-05-08T06:40:30.977Z,18.799999
2023-05-08T06:41:39.299Z,18.799999
2023-05-08T06:42:47.651Z,18.799999
2023-05-08T06:43:56.177Z,15.6
2023-05-08T06:45:04.479Z,15.6
2023-05-08T06:46:12.831Z,15.6
2023-05-08T06:47:21.387Z,16.6
2023-05-08T06:48:29.891Z,16.6
2023-05-08T06:49:38.207Z,16.6
2023-05-08T06:50:46.718Z,16.700001
2023-05-08T06:51:57.295Z,16.700001
2023-05-08T06:53:03.378Z,16.700001
2023-05-08T06:54:11.948Z,15.6
2023-05-08T06:55:20.266Z,15.6
2023-05-08T06:56:28.579Z,15.6
2023-05-08T06:57:37.133Z,17.4
2023-05-08T06:58:53.616Z,17.4
2023-05-08T06:59:53.807Z,17.4
2023-05-08T07:01:02.326Z,16.6
2023-05-08T07:02:10.696Z,16.6
2023-05-08T07:03:18.977Z,16.6
2023-05-08T07:04:27.554Z,17.299999
2023-05-08T07:05:35.862Z,17.299999
2023-05-08T07:06:44.204Z,17.299999
2023-05-08T07:07:52.704Z,17.6
2023-05-08T07:09:01.021Z,17.6
2023-05-08T07:10:09.368Z,17.6
2023-05-08T07:11:17.851Z,15.1
2023-05-08T07:12:26.175Z,15.1
2023-05-08T07:13:34.584Z,15.1
2023-05-08T07:14:43.074Z,18
2023-05-08T07:15:51.435Z,18
2023-05-08T07:16:59.713Z,18
2023-05-08T07:18:08.247Z,16.6
2023-05-08T07:19:16.543Z,16.6
2023-05-08T07:20:24.907Z,16.6
2023-05-08T07:21:33.384Z,16.200001
2023-05-08T07:22:41.708Z,16.200001
2023-05-08T07:23:50.052Z,16.200001
2023-05-08T07:24:58.587Z,14.3
2023-05-08T07:26:06.945Z,14.3
2023-05-08T07:27:15.236Z,14.3
2023-05-08T07:28:23.808Z,14.9
2023-05-08T07:29:32.149Z,14.9
2023-05-08T07:30:40.453Z,14.9
2023-05-08T07:31:49.032Z,16.200001
2023-05-08T07:32:57.369Z,16.200001
2023-05-08T07:34:05.654Z,16.200001
2023-05-08T07:35:14.348Z,17.1
2023-05-08T07:36:22.524Z,17.1
2023-05-08T07:37:30.859Z,17.1
2023-05-08T07:38:39.392Z,15.9
2023-05-08T07:39:47.740Z,15.9
2023-05-08T07:40:56.113Z,15.9
2023-05-08T07:42:23.811Z,15.9
2023-05-08T07:43:32.832Z,15.9
2023-05-08T07:44:53.450Z,15.9
2023-05-08T07:45:49.673Z,15.8
2023-05-08T07:46:58.050Z,15.8
2023-05-08T07:48:06.374Z,15.8
2023-05-08T07:49:14.876Z,16.5
2023-05-08T07:50:23.250Z,16.5
2023-05-08T07:51:31.585Z,16.5
2023-05-08T07:52:40.543Z,15.3
2023-05-08T07:53:49.021Z,15.3
2023-05-08T07:54:57.340Z,15.3
2023-05-08T07:56:05.849Z,13.1
2023-05-08T07:57:14.198Z,13.1
2023-05-08T07:58:23.865Z,13.1
2023-05-08T07:59:31.052Z,14.5
2023-05-08T08:00:39.371Z,14.5
2023-05-08T08:01:47.769Z,14.5
2023-05-08T08:02:56.446Z,13.6
2023-05-08T08:04:04.729Z,13.6
2023-05-08T08:05:13.199Z,13.6
2023-05-08T08:06:21.528Z,13.5
2023-05-08T08:07:29.823Z,13.5
2023-05-08T08:08:38.213Z,13.5
2023-05-08T08:09:46.737Z,12.3
2023-05-08T08:10:55.052Z,12.3
2023-05-08T08:12:03.407Z,12.3
2023-05-08T08:13:12.007Z,14.2
2023-05-08T08:14:20.449Z,14.2
2023-05-08T08:15:28.639Z,14.2
2023-05-08T08:16:37.204Z,15.1
2023-05-08T08:17:45.563Z,15.1
2023-05-08T08:18:53.851Z,15.1
2023-05-08T08:20:02.372Z,13.1
2023-05-08T08:21:10.707Z,13.1
2023-05-08T08:22:19.033Z,13.1
2023-05-08T08:23:27.580Z,12.7
2023-05-08T08:24:35.900Z,12.7
2023-05-08T08:25:44.230Z,12.7
2023-05-08T08:26:52.787Z,12.7
2023-05-08T08:28:01.120Z,12.7
2023-05-08T08:29:09.436Z,12.7
2023-05-08T08:30:18.876Z,15.4
2023-05-08T08:31:26.310Z,15.4
2023-05-08T08:32:34.648Z,15.4
2023-05-08T08:33:43.142Z,13.1
2023-05-08T08:34:51.453Z,13.1
2023-05-08T08:35:59.775Z,13.1
2023-05-08T08:37:08.346Z,13
2023-05-08T08:38:16.644Z,13
2023-05-08T08:39:24.954Z,13
2023-05-08T08:40:33.487Z,13.2
2023-05-08T08:41:41.812Z,13.2
2023-05-08T08:42:50.120Z,13.2
2023-05-08T08:43:58.651Z,14.8
2023-05-08T08:45:07.082Z,14.8
2023-05-08T08:46:15.620Z,14.8
2023-05-08T08:47:23.849Z,12.9
2023-05-08T08:48:32.166Z,12.9
2023-05-08T08:49:40.475Z,12.9
2023-05-08T08:50:48.990Z,13.1
2023-05-08T08:51:57.302Z,13.1
2023-05-08T08:53:05.673Z,13.1
2023-05-08T08:54:14.197Z,13.6
2023-05-08T08:55:22.496Z,13.6
2023-05-08T08:56:30.839Z,13.6
2023-05-08T08:57:39.371Z,13
2023-05-08T08:58:47.707Z,13
2023-05-08T08:59:56.005Z,13
2023-05-08T09:01:04.541Z,12.5
2023-05-08T09:02:13.100Z,12.5
2023-05-08T09:03:21.300Z,12.5
2023-05-08T09:04:29.825Z,11.4
2023-05-08T09:05:38.135Z,11.4
2023-05-08T09:06:46.461Z,11.4
2023-05-08T09:07:54.968Z,12.4
2023-05-08T09:09:03.275Z,12.4
2023-05-08T09:10:11.576Z,12.4
2023-05-08T09:11:20.099Z,12.8
2023-05-08T09:12:28.413Z,12.8
2023-05-08T09:13:36.810Z,12.8
2023-05-08T09:14:45.290Z,12.1
2023-05-08T09:15:53.669Z,12.1
2023-05-08T09:17:01.944Z,12.1
2023-05-08T09:18:10.639Z,11.3
2023-05-08T09:19:20.370Z,11.3
2023-05-08T09:20:27.561Z,11.3
2023-05-08T09:21:36.107Z,12.8
2023-05-08T09:22:44.463Z,12.8
2023-05-08T09:23:52.801Z,12.8
2023-05-08T09:25:01.364Z,11.8
2023-05-08T09:26:09.717Z,11.8
2023-05-08T09:27:18.052Z,11.8
2023-05-08T09:28:26.574Z,11.9
2023-05-08T09:29:34.875Z,11.9
2023-05-08T09:30:43.232Z,11.9
2023-05-08T09:31:51.768Z,13.1
2023-05-08T09:33:00.642Z,13.1
2023-05-08T09:34:09.102Z,13.1
2023-05-08T09:35:17.528Z,11.7
2023-05-08T09:36:25.765Z,11.7
2023-05-08T09:37:34.300Z,11.7
2023-05-08T09:38:42.819Z,12.6
2023-05-08T09:39:51.163Z,12.6
2023-05-08T09:40:59.480Z,12.6
2023-05-08T09:42:07.998Z,10.3
2023-05-08T09:43:16.312Z,10.3
2023-05-08T09:44:24.626Z,10.3
2023-05-08T09:45:33.219Z,10.5
2023-05-08T09:46:41.576Z,10.5
2023-05-08T09:47:49.920Z,10.5
2023-05-08T09:48:58.448Z,11.4
2023-05-08T09:50:06.885Z,11.4
2023-05-08T09:51:15.065Z,11.4
2023-05-08T09:52:23.593Z,13.3
2023-05-08T09:53:31.946Z,13.3
2023-05-08T09:54:40.268Z,13.3
2023-05-08T09:55:48.789Z,10.8
2023-05-08T09:56:57.112Z,10.8
2023-05-08T09:58:05.467Z,10.8
2023-05-08T09:59:13.995Z,9.3
2023-05-08T10:00:22.302Z,9.3
2023-05-08T10:01:30.660Z,9.3
2023-05-08T10:02:39.258Z,9.4
2023-05-08T10:03:47.453Z,9.4
2023-05-08T10:04:55.766Z,9.4
2023-05-08T10:06:04.416Z,9.7
2023-05-08T10:07:12.601Z,9.7
2023-05-08T10:08:20.938Z,9.7
2023-05-08T10:09:39.192Z,9.4
2023-05-08T10:10:37.806Z,9.4
2023-05-08T10:11:46.123Z,9.4
2023-05-08T10:12:54.665Z,8.9
2023-05-08T10:14:02.979Z,8.9
2023-05-08T10:15:11.275Z,8.9
2023-05-08T10:16:19.819Z,8.8
2023-05-08T10:17:28.115Z,8.8
2023-05-08T10:18:36.440Z,8.8
2023-05-08T10:19:44.983Z,8.4
2023-05-08T10:20:53.293Z,8.4
2023-05-08T10:22:01.728Z,8.4
2023-05-08T10:23:10.160Z,8.6
2023-05-08T10:24:18.510Z,8.6
2023-05-08T10:25:26.824Z,8.6
2023-05-08T10:26:35.351Z,9.2
2023-05-08T10:27:43.664Z,9.2
2023-05-08T10:28:51.996Z,9.2
2023-05-08T10:30:00.530Z,9.4
2023-05-08T10:31:08.911Z,9.4
2023-05-08T10:32:17.175Z,9.4
2023-05-08T10:33:25.711Z,8.9
2023-05-08T10:34:34.034Z,8.9
2023-05-08T10:35:42.354Z,8.9
2023-05-08T10:36:52.192Z,8.3
2023-05-08T10:37:59.404Z,8.3
2023-05-08T10:39:07.590Z,8.3
2023-05-08T10:40:16.333Z,9.6
2023-05-08T10:41:24.424Z,9.6
2023-05-08T10:42:32.758Z,9.6
2023-05-08T10:43:41.270Z,9.9
2023-05-08T10:44:49.572Z,9.9
2023-05-08T10:45:57.886Z,9.9
2023-05-08T10:47:06.455Z,8.9
2023-05-08T10:48:14.741Z,8.9
2023-05-08T10:49:23.068Z,8.9
2023-05-08T10:50:31.569Z,8.5
2023-05-08T10:51:39.885Z,8.5
2023-05-08T10:52:48.200Z,8.5
2023-05-08T10:53:56.739Z,7.7
2023-05-08T10:55:05.033Z,7.7
2023-05-08T10:56:13.332Z,7.7
2023-05-08T10:57:21.873Z,9.1
2023-05-08T10:58:30.229Z,9.1
2023-05-08T10:59:38.560Z,9.1
2023-05-08T11:00:47.059Z,8.5
2023-05-08T11:01:55.396Z,8.5
2023-05-08T11:03:03.815Z,8.5
2023-05-08T11:04:12.221Z,8.5
2023-05-08T11:05:20.502Z,8.5
2023-05-08T11:06:28.817Z,8.5
2023-05-08T11:07:37.329Z,9.7
2023-05-08T11:08:45.644Z,9.7
2023-05-08T11:09:54.012Z,9.7
2023-05-08T11:11:02.499Z,9
2023-05-08T11:12:10.829Z,9
2023-05-08T11:13:19.181Z,9
2023-05-08T11:14:27.715Z,9.2
2023-05-08T11:15:36.060Z,9.2
2023-05-08T11:16:44.440Z,9.2
2023-05-08T11:17:52.941Z,9.3
2023-05-08T11:19:01.246Z,9.3
2023-05-08T11:20:09.583Z,9.3
2023-05-08T11:21:18.084Z,8.2
2023-05-08T11:22:26.394Z,8.2
2023-05-08T11:23:34.707Z,8.2
2023-05-08T11:24:43.275Z,8.1
2023-05-08T11:25:51.608Z,8.1
2023-05-08T11:26:59.901Z,8.1
2023-05-08T11:28:08.442Z,8.2
2023-05-08T11:29:16.761Z,8.2
2023-05-08T11:30:25.090Z,8.2
2023-05-08T11:31:33.623Z,7.2
2023-05-08T11:32:41.943Z,7.2
2023-05-08T11:33:50.249Z,7.2
2023-05-08T11:34:58.763Z,7.9
2023-05-08T11:36:07.090Z,7.9
2023-05-08T11:37:16.153Z,7.9
2023-05-08T11:38:24.696Z,7.3
2023-05-08T11:39:33.017Z,7.3
2023-05-08T11:40:41.351Z,7.3
2023-05-08T11:41:49.924Z,6.7
2023-05-08T11:42:58.230Z,6.7
2023-05-08T11:44:06.573Z,6.7
2023-05-08T11:45:15.126Z,5.2
2023-05-08T11:46:23.469Z,5.2
2023-05-08T11:47:31.802Z,5.2
2023-05-08T11:48:40.344Z,7.7
2023-05-08T11:49:48.677Z,7.7
2023-05-08T11:50:56.993Z,7.7
2023-05-08T11:52:05.556Z,5.5
2023-05-08T11:53:13.892Z,5.5
2023-05-08T11:54:22.236Z,5.5
2023-05-08T11:55:30.776Z,5.5
2023-05-08T11:56:39.100Z,5.5
2023-05-08T11:57:47.443Z,5.5
2023-05-08T11:58:55.979Z,5.7
2023-05-08T12:00:04.329Z,5.7
2023-05-08T12:01:12.727Z,5.7
2023-05-08T12:02:21.221Z,5.3
2023-05-08T12:03:29.606Z,5.3
2023-05-08T12:04:37.903Z,5.3
2023-05-08T12:05:46.389Z,7.3
2023-05-08T12:06:54.682Z,7.3
2023-05-08T12:08:02.997Z,7.3
2023-05-08T12:09:11.545Z,5.8
2023-05-08T12:10:19.908Z,5.8
2023-05-08T12:11:28.243Z,5.8
2023-05-08T12:12:36.741Z,5.4
2023-05-08T12:13:45.095Z,5.4
2023-05-08T12:14:53.381Z,5.4
2023-05-08T12:16:01.930Z,5.1
2023-05-08T12:17:10.311Z,5.1
2023-05-08T12:18:18.567Z,5.1
2023-05-08T12:19:27.089Z,5
2023-05-08T12:20:35.420Z,5
2023-05-08T12:21:43.724Z,5
2023-05-08T12:22:52.280Z,4.5
2023-05-08T12:24:00.592Z,4.5
2023-05-08T12:25:08.928Z,4.5
2023-05-08T12:26:17.449Z,5.4
2023-05-08T12:27:25.772Z,5.4
2023-05-08T12:28:34.095Z,5.4
2023-05-08T12:29:42.673Z,5.1
2023-05-08T12:30:50.963Z,5.1
2023-05-08T12:31:59.273Z,5.1
2023-05-08T12:33:07.833Z,5.1
2023-05-08T12:34:16.146Z,5.1
2023-05-08T12:35:24.502Z,5.1
2023-05-08T12:36:33.038Z,9.1
2023-05-08T12:37:41.379Z,9.1
2023-05-08T12:38:49.731Z,9.1
2023-05-08T12:39:58.255Z,5.1
2023-05-08T12:41:06.579Z,5.1
2023-05-08T12:42:14.872Z,5.1
2023-05-08T12:43:23.411Z,9
2023-05-08T12:44:31.757Z,9
2023-05-08T12:45:40.262Z,9
2023-05-08T12:46:48.686Z,5.4
2023-05-08T12:47:57.018Z,5.4
2023-05-08T12:49:05.278Z,5.4
2023-05-08T12:50:14.087Z,5.2
2023-05-08T12:51:22.309Z,5.2
2023-05-08T12:52:30.681Z,5.2
2023-05-08T12:53:39.202Z,6.5
2023-05-08T12:54:47.527Z,6.5
2023-05-08T12:55:55.852Z,6.5
2023-05-08T12:57:04.380Z,6.3
2023-05-08T12:58:14.915Z,6.3
2023-05-08T12:59:21.100Z,6.3
2023-05-08T13:00:29.658Z,8.4
2023-05-08T13:01:38.005Z,8.4
2023-05-08T13:02:49.370Z,8.4
2023-05-08T13:04:01.363Z,7.8
2023-05-08T13:05:03.187Z,7.8
2023-05-08T13:06:11.537Z,7.8
2023-05-08T13:07:20.078Z,5.5
2023-05-08T13:08:28.416Z,5.5
2023-05-08T13:09:36.758Z,5.5
2023-05-08T13:10:45.301Z,4.7
2023-05-08T13:11:53.653Z,4.7
2023-05-08T13:13:02.051Z,4.7
2023-05-08T13:14:10.681Z,4.3
2023-05-08T13:15:18.941Z,4.3
2023-05-08T13:16:27.316Z,4.3
2023-05-08T13:17:35.879Z,4.4
2023-05-08T13:18:44.369Z,4.4
2023-05-08T13:19:52.542Z,4.4
2023-05-08T13:21:01.065Z,4.3
2023-05-08T13:22:09.408Z,4.3
2023-05-08T13:23:17.732Z,4.3
2023-05-08T13:24:26.318Z,4.9
2023-05-08T13:25:34.642Z,4.9
2023-05-08T13:26:43.012Z,4.9
2023-05-08T13:27:51.565Z,3.2
2023-05-08T13:28:59.882Z,3.2
2023-05-08T13:30:08.229Z,3.2
2023-05-08T13:31:16.891Z,3.3
2023-05-08T13:32:25.125Z,3.3
2023-05-08T13:33:33.589Z,3.3
2023-05-08T13:34:49.559Z,7.7
2023-05-08T13:35:50.339Z,7.7
2023-05-08T13:36:58.688Z,7.7
2023-05-08T13:38:07.264Z,4.7
2023-05-08T13:39:15.593Z,4.7
2023-05-08T13:40:23.969Z,4.7
2023-05-08T13:41:32.528Z,3.2
2023-05-08T13:42:41.211Z,3.2
2023-05-08T13:43:49.538Z,3.2
2023-05-08T13:44:58.060Z,3.8
2023-05-08T13:46:07.080Z,3.8
2023-05-08T13:47:14.736Z,3.8
2023-05-08T13:48:23.268Z,3.9
2023-05-08T13:49:31.729Z,3.9
2023-05-08T13:50:39.947Z,3.9
2023-05-08T13:51:49.375Z,3.4
2023-05-08T13:52:56.828Z,3.4
2023-05-08T13:54:05.145Z,3.4
2023-05-08T13:55:13.949Z,2.9
2023-05-08T13:56:22.031Z,2.9
2023-05-08T13:57:30.353Z,2.9
2023-05-08T13:58:38.887Z,5.9
2023-05-08T13:59:47.213Z,5.9
2023-05-08T14:00:55.607Z,5.9
2023-05-08T14:02:04.095Z,7.3
2023-05-08T14:03:12.475Z,7.3
2023-05-08T14:04:20.752Z,7.3
2023-05-08T14:05:29.424Z,3.2
2023-05-08T14:06:37.651Z,3.2
2023-05-08T14:07:45.979Z,3.2
2023-05-08T14:08:56.240Z,3.1
2023-05-08T14:10:02.860Z,3.1
2023-05-08T14:11:11.201Z,3.1
2023-05-08T14:12:19.711Z,7.9
2023-05-08T14:13:28.164Z,7.9
2023-05-08T14:14:36.362Z,7.9
2023-05-08T14:15:44.953Z,4
2023-05-08T14:16:53.285Z,4
2023-05-08T14:18:01.705Z,4
2023-05-08T14:19:10.208Z,3.7
2023-05-08T14:20:18.569Z,3.7
2023-05-08T14:21:26.926Z,3.7
2023-05-08T14:22:35.428Z,6.2
2023-05-08T14:23:43.784Z,6.2
2023-05-08T14:24:52.124Z,6.2
2023-05-08T14:26:00.680Z,3.9
2023-05-08T14:27:08.999Z,3.9
2023-05-08T14:28:17.351Z,3.9
2023-05-08T14:29:25.828Z,2.8
2023-05-08T14:30:34.153Z,2.8
2023-05-08T14:31:42.566Z,2.8
2023-05-08T14:32:51.059Z,3.2
2023-05-08T14:33:59.397Z,3.2
2023-05-08T14:35:07.732Z,3.2
2023-05-08T14:36:16.259Z,4.4
2023-05-08T14:37:24.714Z,4.4
2023-05-08T14:38:32.956Z,4.4
2023-05-08T14:39:41.505Z,3.6
2023-05-08T14:40:49.835Z,3.6
2023-05-08T14:42:18.024Z,3.6
2023-05-08T14:43:06.726Z,2.7
2023-05-08T14:44:15.043Z,2.7
2023-05-08T14:45:23.419Z,2.7
2023-05-08T14:46:31.972Z,3
2023-05-08T14:47:40.261Z,3
2023-05-08T14:48:48.601Z,3
2023-05-08T14:49:57.140Z,4.3
2023-05-08T14:51:05.452Z,4.3
2023-05-08T14:52:13.795Z,4.3
2023-05-08T14:53:22.573Z,3.9
2023-05-08T14:54:30.886Z,3.9
2023-05-08T14:55:39.221Z,3.9
2023-05-08T14:56:47.877Z,4.2
2023-05-08T14:57:55.848Z,4.2
2023-05-08T14:59:04.206Z,4.2
2023-05-08T15:00:12.888Z,3.9
2023-05-08T15:01:21.098Z,3.9
2023-05-08T15:02:29.500Z,3.9
2023-05-08T15:03:38.110Z,4.2
2023-05-08T15:04:46.273Z,4.2
2023-05-08T15:05:54.593Z,4.2
2023-05-08T15:07:03.145Z,4.8
2023-05-08T15:08:11.471Z,4.8
2023-05-08T15:09:19.965Z,4.8
2023-05-08T15:10:28.339Z,3.7
2023-05-08T15:11:36.687Z,3.7